Time;durP1;ratioP1;P1;durP2;ratioP2;P2;SDS_P1;SDS_P2;PMS_P1;PMS_P2;Temp;Humidity;BMP_temperature;BMP_pressure;BME280_temperature;BME280_humidity;BME280_pressure;Samples;Min_cycle;Max_cycle;Signal;HPM_P1;HPM_P2
2023/08/04 00:00:30;;;;;;;14.27;8.60;;;14.80;99.90;;;;;;4962727;29;20437;-61
2023/08/04 00:02:58;;;;;;;11.57;8.60;;;14.80;99.90;;;;;;4962423;29;20467;-61
2023/08/04 00:05:25;;;;;;;13.87;9.63;;;14.80;99.90;;;;;;4962637;29;20437;-61
2023/08/04 00:07:52;;;;;;;19.20;9.23;;;14.80;99.90;;;;;;4960872;29;20458;-61
2023/08/04 00:10:20;;;;;;;12.00;8.60;;;14.80;99.90;;;;;;4966452;28;20490;-61
2023/08/04 00:12:48;;;;;;;14.37;9.43;;;14.80;99.90;;;;;;4980868;28;20556;-62
2023/08/04 00:15:15;;;;;;;13.90;8.97;;;14.70;99.90;;;;;;4981570;28;20467;-62
2023/08/04 00:17:42;;;;;;;10.27;8.77;;;14.70;99.90;;;;;;4981670;28;20472;-61
2023/08/04 00:20:11;;;;;;;15.20;9.00;;;14.80;99.90;;;;;;4981608;28;20436;-61
2023/08/04 00:22:38;;;;;;;9.33;8.40;;;14.80;99.90;;;;;;4981385;28;20941;-61
2023/08/04 00:25:06;;;;;;;14.03;10.37;;;14.80;99.90;;;;;;4981640;28;20437;-61
2023/08/04 00:27:33;;;;;;;13.20;9.70;;;14.80;99.90;;;;;;4981025;28;20461;-61
2023/08/04 00:30:02;;;;;;;17.70;10.17;;;14.70;99.90;;;;;;4980879;28;20500;-61
2023/08/04 00:32:29;;;;;;;16.63;9.97;;;14.70;99.90;;;;;;4980997;28;20564;-60
2023/08/04 00:34:56;;;;;;;15.30;10.60;;;14.70;99.90;;;;;;4981483;28;20728;-61
2023/08/04 00:37:24;;;;;;;15.83;10.40;;;14.70;99.90;;;;;;4981076;28;20930;-60
2023/08/04 00:39:51;;;;;;;16.03;9.47;;;14.70;99.90;;;;;;4981115;28;20527;-60
2023/08/04 00:42:18;;;;;;;13.43;10.20;;;14.70;99.90;;;;;;4980723;28;20436;-58
2023/08/04 00:44:46;;;;;;;13.40;10.17;;;14.70;99.90;;;;;;4980994;28;20543;-59
2023/08/04 00:47:15;;;;;;;13.50;9.80;;;14.70;99.90;;;;;;4980958;28;20458;-59
2023/08/04 00:49:45;;;;;;;11.40;9.83;;;14.70;99.90;;;;;;4979805;28;20461;-59
2023/08/04 00:52:12;;;;;;;13.53;9.57;;;14.70;99.90;;;;;;4980390;28;20486;-60
2023/08/04 00:54:39;;;;;;;15.93;10.10;;;14.70;99.90;;;;;;4980459;28;20466;-60
2023/08/04 00:57:07;;;;;;;16.33;9.33;;;14.70;99.90;;;;;;4980823;28;20584;-61
2023/08/04 00:59:34;;;;;;;15.03;9.03;;;14.70;99.90;;;;;;4980321;28;20498;-60
2023/08/04 01:02:01;;;;;;;10.47;9.37;;;14.70;99.90;;;;;;4980361;28;20902;-61
2023/08/04 01:04:30;;;;;;;12.40;9.17;;;14.70;99.90;;;;;;4980350;28;20472;-61
2023/08/04 01:07:08;;;;;;;11.13;9.77;;;14.70;99.90;;;;;;4980088;28;20994;-61
2023/08/04 01:09:42;;;;;;;13.17;10.53;;;14.80;99.90;;;;;;4980184;28;20549;-61
2023/08/04 01:12:16;;;;;;;14.43;9.90;;;14.70;99.90;;;;;;4979785;28;20465;-58
2023/08/04 01:14:45;;;;;;;15.43;10.70;;;14.70;99.90;;;;;;4979874;28;20968;-58
2023/08/04 01:17:26;;;;;;;11.80;10.20;;;14.70;99.90;;;;;;4980516;28;20527;-60
2023/08/04 01:19:55;;;;;;;18.53;10.47;;;14.70;99.90;;;;;;4980246;28;20466;-59
2023/08/04 01:22:25;;;;;;;10.77;9.67;;;14.70;99.90;;;;;;4980279;28;20491;-59
2023/08/04 01:24:53;;;;;;;14.30;11.00;;;14.70;99.90;;;;;;4980211;28;20469;-58
2023/08/04 01:27:29;;;;;;;18.07;9.83;;;14.70;99.90;;;;;;4980595;28;20456;-58
2023/08/04 01:29:58;;;;;;;12.83;10.07;;;14.70;99.90;;;;;;4980264;28;20491;-57
2023/08/04 01:32:25;;;;;;;14.67;10.57;;;14.70;99.90;;;;;;4980468;28;20870;-58
2023/08/04 01:34:53;;;;;;;10.87;9.60;;;14.60;99.90;;;;;;4980113;28;20462;-58
2023/08/04 01:37:20;;;;;;;12.90;8.43;;;14.70;99.90;;;;;;4980202;28;20498;-58
2023/08/04 01:39:50;;;;;;;11.50;9.27;;;14.60;99.90;;;;;;4979510;28;20887;-58
2023/08/04 01:42:17;;;;;;;11.80;10.13;;;14.70;99.90;;;;;;4979968;28;20767;-59
2023/08/04 01:44:44;;;;;;;14.30;10.10;;;14.60;99.90;;;;;;4979489;28;20770;-59
2023/08/04 01:47:11;;;;;;;17.97;11.47;;;14.70;99.90;;;;;;4979756;28;20474;-59
2023/08/04 01:49:38;;;;;;;14.50;12.50;;;14.70;99.90;;;;;;4979787;28;20440;-59
2023/08/04 01:52:06;;;;;;;12.00;10.73;;;14.60;99.90;;;;;;4979327;28;20525;-59
2023/08/04 01:54:33;;;;;;;11.90;10.50;;;14.60;99.90;;;;;;4979650;28;20907;-60
2023/08/04 01:57:02;;;;;;;16.90;13.10;;;14.60;99.90;;;;;;4979261;28;20465;-60
2023/08/04 01:59:29;;;;;;;15.63;12.80;;;14.60;99.90;;;;;;4979443;28;20468;-61
2023/08/04 02:01:56;;;;;;;18.07;15.13;;;14.70;99.90;;;;;;4979447;28;20516;-61
2023/08/04 02:04:23;;;;;;;15.93;14.03;;;14.70;99.90;;;;;;4979438;28;20759;-61
2023/08/04 02:06:50;;;;;;;19.37;15.50;;;14.70;99.90;;;;;;4979403;28;20474;-61
2023/08/04 02:09:18;;;;;;;18.10;15.17;;;14.70;99.90;;;;;;4979456;28;20461;-61
2023/08/04 02:11:45;;;;;;;21.30;16.00;;;14.60;99.90;;;;;;4962976;28;20463;-61
2023/08/04 02:14:14;;;;;;;21.90;16.10;;;14.60;99.90;;;;;;4959690;28;20465;-61
2023/08/04 02:16:41;;;;;;;22.03;17.30;;;14.60;99.90;;;;;;4960253;29;20926;-61
2023/08/04 02:19:09;;;;;;;18.17;15.40;;;14.60;99.90;;;;;;4959923;29;20505;-62
2023/08/04 02:21:37;;;;;;;23.80;16.67;;;14.60;99.90;;;;;;4961524;28;20540;-61
2023/08/04 02:24:05;;;;;;;24.27;18.23;;;14.60;99.90;;;;;;4977421;28;20488;-61
2023/08/04 02:26:32;;;;;;;24.27;19.67;;;14.60;99.90;;;;;;4979252;28;20552;-61
2023/08/04 02:29:00;;;;;;;23.73;21.33;;;14.60;99.90;;;;;;4979103;28;20549;-61
2023/08/04 02:31:32;;;;;;;32.20;22.83;;;14.60;99.90;;;;;;4970817;28;20560;-62
2023/08/04 02:33:59;;;;;;;29.00;22.63;;;14.60;99.90;;;;;;4976504;28;20470;-61
2023/08/04 02:36:26;;;;;;;24.47;21.97;;;14.60;99.90;;;;;;4958005;28;20480;-61
2023/08/04 02:38:53;;;;;;;34.30;23.07;;;14.60;99.90;;;;;;4960109;28;20494;-61
2023/08/04 02:41:21;;;;;;;28.73;22.47;;;14.60;99.90;;;;;;4962382;28;20784;-61
2023/08/04 02:43:48;;;;;;;25.33;22.43;;;14.60;99.90;;;;;;4959146;29;20463;-61
2023/08/04 02:46:15;;;;;;;28.67;23.93;;;14.60;99.90;;;;;;4960279;28;20773;-61
2023/08/04 02:48:43;;;;;;;27.47;22.97;;;14.60;99.90;;;;;;4959308;28;20586;-62
2023/08/04 02:51:13;;;;;;;32.50;22.73;;;14.60;99.90;;;;;;4975924;28;20608;-61
2023/08/04 02:53:43;;;;;;;29.83;23.83;;;14.60;99.90;;;;;;4972687;28;20478;-61
2023/08/04 02:56:10;;;;;;;28.83;22.47;;;14.60;99.90;;;;;;4964707;28;20470;-62
2023/08/04 02:58:38;;;;;;;31.10;24.77;;;14.60;99.90;;;;;;4964348;28;20580;-61
2023/08/04 03:01:05;;;;;;;28.53;23.90;;;14.60;99.90;;;;;;4958694;28;20796;-62
2023/08/04 03:03:33;;;;;;;29.10;24.17;;;14.50;99.90;;;;;;4961050;28;20915;-61
2023/08/04 03:06:02;;;;;;;32.90;24.80;;;14.50;99.90;;;;;;4962368;28;20605;-62
2023/08/04 03:08:31;;;;;;;30.30;23.03;;;14.60;99.90;;;;;;4965416;28;20779;-61
2023/08/04 03:10:58;;;;;;;31.63;23.13;;;14.60;99.90;;;;;;4969729;28;20497;-61
2023/08/04 03:13:25;;;;;;;31.20;24.57;;;14.60;99.90;;;;;;4961353;28;20557;-62
2023/08/04 03:15:57;;;;;;;30.17;23.97;;;14.50;99.90;;;;;;4961028;28;20474;-62
2023/08/04 03:18:24;;;;;;;26.90;23.93;;;14.50;99.90;;;;;;4964944;28;20469;-62
2023/08/04 03:20:51;;;;;;;30.50;23.90;;;14.50;99.90;;;;;;4965481;28;20485;-62
2023/08/04 03:23:21;;;;;;;32.20;24.23;;;14.50;99.90;;;;;;4970734;28;20477;-62
2023/08/04 03:25:49;;;;;;;28.63;23.17;;;14.50;99.90;;;;;;4962531;28;20501;-62
2023/08/04 03:28:16;;;;;;;27.20;21.57;;;14.50;99.90;;;;;;4966952;28;21038;-61
2023/08/04 03:30:43;;;;;;;27.57;22.47;;;14.60;99.90;;;;;;4961211;28;20474;-62
2023/08/04 03:33:10;;;;;;;26.33;22.47;;;14.50;99.90;;;;;;4965581;28;20564;-61
2023/08/04 03:35:37;;;;;;;32.20;23.20;;;14.50;99.90;;;;;;4966835;28;20799;-62
2023/08/04 03:38:05;;;;;;;27.20;22.63;;;14.50;99.90;;;;;;4966063;28;20482;-62
2023/08/04 03:40:33;;;;;;;24.83;21.20;;;14.50;99.90;;;;;;4969024;28;20468;-62
2023/08/04 03:43:00;;;;;;;28.93;22.33;;;14.50;99.90;;;;;;4959625;28;20995;-62
2023/08/04 03:45:28;;;;;;;28.13;22.50;;;14.50;99.90;;;;;;4965843;28;20985;-62
2023/08/04 03:47:55;;;;;;;24.90;21.50;;;14.50;99.90;;;;;;4970626;28;20452;-62
2023/08/04 03:50:25;;;;;;;29.60;24.13;;;14.50;99.90;;;;;;4959582;28;20470;-62
2023/08/04 03:52:52;;;;;;;23.60;21.07;;;14.50;99.90;;;;;;4959205;28;20504;-62
2023/08/04 03:55:19;;;;;;;26.13;21.53;;;14.50;99.90;;;;;;4967451;28;20479;-61
2023/08/04 03:57:48;;;;;;;29.40;24.53;;;14.50;99.90;;;;;;4965785;28;20542;-62
2023/08/04 04:00:15;;;;;;;27.77;21.63;;;14.50;99.90;;;;;;4968800;28;20462;-62
2023/08/04 04:02:42;;;;;;;27.43;21.70;;;14.60;99.90;;;;;;4958596;29;20565;-62
2023/08/04 04:05:10;;;;;;;30.20;23.00;;;14.60;99.90;;;;;;4959449;28;20907;-61
2023/08/04 04:07:37;;;;;;;24.50;21.30;;;14.50;99.90;;;;;;4964137;28;20910;-61
2023/08/04 04:10:05;;;;;;;25.90;22.00;;;14.50;99.90;;;;;;4963444;28;20565;-61
2023/08/04 04:12:32;;;;;;;34.73;23.77;;;14.50;99.90;;;;;;4958451;28;20466;-62
2023/08/04 04:15:01;;;;;;;29.90;22.60;;;14.40;99.90;;;;;;4960702;28;20483;-61
2023/08/04 04:17:28;;;;;;;26.50;21.40;;;14.40;99.90;;;;;;4973666;28;20532;-62
2023/08/04 04:19:55;;;;;;;26.77;23.47;;;14.50;99.90;;;;;;4976475;28;20472;-62
2023/08/04 04:22:22;;;;;;;28.20;21.10;;;14.50;99.90;;;;;;4977849;28;20480;-62
2023/08/04 04:24:50;;;;;;;31.47;22.30;;;14.40;99.90;;;;;;4974592;28;20474;-62
2023/08/04 04:27:17;;;;;;;26.07;23.10;;;14.40;99.90;;;;;;4963580;28;20911;-62
2023/08/04 04:29:44;;;;;;;30.60;22.53;;;14.40;99.90;;;;;;4962985;28;20926;-63
2023/08/04 04:32:13;;;;;;;26.03;22.83;;;14.50;99.90;;;;;;4971870;28;20811;-62
2023/08/04 04:34:41;;;;;;;32.67;25.40;;;14.50;99.90;;;;;;4959888;28;20466;-62
2023/08/04 04:37:08;;;;;;;25.77;22.80;;;14.50;99.90;;;;;;4961201;28;20479;-62
2023/08/04 04:39:35;;;;;;;28.97;23.67;;;14.40;99.90;;;;;;4968699;28;20498;-62
2023/08/04 04:42:03;;;;;;;30.57;24.20;;;14.50;99.90;;;;;;4970212;28;20735;-62
2023/08/04 04:44:30;;;;;;;30.57;23.07;;;14.40;99.90;;;;;;4960190;28;20437;-61
2023/08/04 04:46:58;;;;;;;27.00;22.90;;;14.50;99.90;;;;;;4961721;28;20478;-62
2023/08/04 04:49:26;;;;;;;31.97;23.17;;;14.50;99.90;;;;;;4968865;28;20469;-62
2023/08/04 04:51:54;;;;;;;28.37;23.27;;;14.60;99.90;;;;;;4971546;28;20473;-62
2023/08/04 04:54:21;;;;;;;26.93;22.67;;;14.60;99.90;;;;;;4977400;28;20504;-62
2023/08/04 04:56:49;;;;;;;30.83;24.40;;;14.70;99.90;;;;;;4974404;28;20874;-61
2023/08/04 04:59:16;;;;;;;25.50;22.10;;;14.70;99.90;;;;;;4966138;28;20499;-63
2023/08/04 05:01:44;;;;;;;25.10;22.43;;;14.60;99.90;;;;;;4967937;28;20826;-61
2023/08/04 05:04:11;;;;;;;25.90;21.97;;;14.70;99.90;;;;;;4970148;28;20447;-61
2023/08/04 05:06:40;;;;;;;27.63;20.30;;;14.70;99.90;;;;;;4963023;28;20445;-62
2023/08/04 05:09:08;;;;;;;25.27;20.90;;;14.60;99.90;;;;;;4961922;28;20540;-64
2023/08/04 05:11:35;;;;;;;22.47;20.07;;;14.70;99.90;;;;;;4961268;28;20501;-62
2023/08/04 05:14:02;;;;;;;25.20;18.33;;;14.70;99.90;;;;;;4969231;28;20447;-61
2023/08/04 05:16:30;;;;;;;24.90;21.80;;;14.80;99.90;;;;;;4964748;28;20481;-62
2023/08/04 05:18:57;;;;;;;29.50;20.53;;;14.90;99.90;;;;;;4969257;28;20532;-60
2023/08/04 05:21:24;;;;;;;26.17;19.73;;;14.90;99.90;;;;;;4964466;28;20478;-60
2023/08/04 05:23:53;;;;;;;26.40;21.23;;;15.00;99.90;;;;;;4968746;28;20474;-61
2023/08/04 05:26:20;;;;;;;25.10;19.17;;;15.00;99.90;;;;;;4970888;28;20943;-61
2023/08/04 05:28:47;;;;;;;29.47;20.30;;;14.90;99.90;;;;;;4960506;28;20505;-60
2023/08/04 05:31:14;;;;;;;22.27;19.13;;;15.00;99.90;;;;;;4958844;28;20875;-59
2023/08/04 05:33:41;;;;;;;24.03;18.43;;;15.00;99.90;;;;;;4964064;28;20908;-59
2023/08/04 05:36:09;;;;;;;25.50;19.80;;;15.00;99.90;;;;;;4973834;28;20480;-60
2023/08/04 05:38:36;;;;;;;25.20;19.87;;;14.90;99.90;;;;;;4959203;28;20510;-60
2023/08/04 05:41:05;;;;;;;27.03;21.90;;;15.00;99.90;;;;;;4969457;28;20536;-60
2023/08/04 05:43:33;;;;;;;27.67;21.87;;;15.10;99.90;;;;;;4957936;28;20457;-60
2023/08/04 05:46:02;;;;;;;32.17;23.20;;;15.10;99.90;;;;;;4959460;28;20490;-59
2023/08/04 05:48:30;;;;;;;29.73;22.20;;;15.10;99.90;;;;;;4963576;28;20502;-59
2023/08/04 05:50:57;;;;;;;35.03;22.13;;;15.10;99.90;;;;;;4959347;28;20455;-59
2023/08/04 05:53:24;;;;;;;26.90;21.87;;;15.20;99.90;;;;;;4967848;28;20480;-60
2023/08/04 05:55:52;;;;;;;27.63;22.37;;;15.20;99.90;;;;;;4965255;28;20566;-60
2023/08/04 05:58:20;;;;;;;32.20;21.53;;;15.10;99.90;;;;;;4969216;28;20947;-60
2023/08/04 06:00:47;;;;;;;32.23;23.63;;;15.10;99.90;;;;;;4968308;28;20494;-60
2023/08/04 06:03:14;;;;;;;25.13;20.10;;;15.30;99.90;;;;;;4970052;28;20477;-59
2023/08/04 06:05:42;;;;;;;25.67;18.80;;;15.30;99.90;;;;;;4963536;28;20959;-59
2023/08/04 06:08:10;;;;;;;26.73;19.50;;;15.30;99.90;;;;;;4962889;28;20454;-60
2023/08/04 06:10:37;;;;;;;22.27;17.60;;;15.30;99.90;;;;;;4975620;28;21165;-59
2023/08/04 06:13:05;;;;;;;23.93;17.47;;;15.30;99.90;;;;;;4966659;28;20785;-60
2023/08/04 06:15:34;;;;;;;22.23;16.37;;;15.40;99.90;;;;;;4965057;28;20500;-60
2023/08/04 06:18:02;;;;;;;23.97;16.90;;;15.40;99.90;;;;;;4963214;28;20474;-59
2023/08/04 06:20:29;;;;;;;22.50;15.03;;;15.60;99.90;;;;;;4961511;28;20584;-61
2023/08/04 06:22:56;;;;;;;17.50;15.60;;;15.60;99.90;;;;;;4969128;28;20480;-60
2023/08/04 06:25:23;;;;;;;18.50;15.90;;;15.60;99.90;;;;;;4967502;28;20479;-60
2023/08/04 06:27:50;;;;;;;18.77;15.07;;;15.70;99.90;;;;;;4959147;29;20463;-60
2023/08/04 06:30:18;;;;;;;20.37;15.73;;;15.50;99.90;;;;;;4964441;28;20505;-60
2023/08/04 06:32:47;;;;;;;18.43;15.03;;;15.70;99.90;;;;;;4957848;28;20468;-60
2023/08/04 06:35:15;;;;;;;17.10;13.97;;;15.80;99.90;;;;;;4963548;28;20456;-61
2023/08/04 06:37:42;;;;;;;20.57;14.90;;;16.00;99.90;;;;;;4967647;28;20765;-61
2023/08/04 06:40:10;;;;;;;17.23;13.50;;;16.50;99.90;;;;;;4957683;28;20461;-61
2023/08/04 06:42:37;;;;;;;14.87;13.00;;;16.60;99.90;;;;;;4968135;28;20728;-61
2023/08/04 06:45:05;;;;;;;22.50;13.37;;;16.50;99.90;;;;;;4967889;28;20452;-61
2023/08/04 06:47:33;;;;;;;18.63;13.10;;;16.60;99.90;;;;;;4958969;28;20892;-61
2023/08/04 06:50:01;;;;;;;15.87;11.90;;;16.50;99.90;;;;;;4963063;28;20768;-61
2023/08/04 06:52:30;;;;;;;20.17;14.23;;;16.60;99.90;;;;;;4971545;28;20482;-61
2023/08/04 06:54:57;;;;;;;17.80;13.40;;;16.60;99.90;;;;;;4962547;28;20549;-61
2023/08/04 06:57:24;;;;;;;17.67;12.80;;;16.70;99.90;;;;;;4961681;28;20709;-61
2023/08/04 06:59:51;;;;;;;16.03;11.80;;;17.00;99.90;;;;;;4976856;28;20951;-61
2023/08/04 07:02:18;;;;;;;13.93;11.37;;;16.90;99.90;;;;;;4976759;28;20461;-61
2023/08/04 07:04:46;;;;;;;17.97;12.80;;;16.70;99.90;;;;;;4976958;28;20442;-60
2023/08/04 07:07:14;;;;;;;18.47;13.60;;;16.70;99.90;;;;;;4977004;28;20553;-61
2023/08/04 07:09:42;;;;;;;15.90;12.03;;;16.90;99.90;;;;;;4977116;28;20571;-60
2023/08/04 07:12:09;;;;;;;16.80;12.50;;;17.10;99.90;;;;;;4977950;28;20899;-60
2023/08/04 07:14:37;;;;;;;12.90;11.57;;;17.30;99.90;;;;;;4978260;28;20461;-60
2023/08/04 07:17:04;;;;;;;17.43;12.83;;;17.30;99.90;;;;;;4977751;28;20553;-60
2023/08/04 07:19:31;;;;;;;14.30;11.40;;;17.50;99.90;;;;;;4978462;28;20489;-60
2023/08/04 07:21:59;;;;;;;13.07;10.43;;;17.50;99.90;;;;;;4977933;28;20436;-61
2023/08/04 07:24:28;;;;;;;14.50;12.33;;;17.40;99.90;;;;;;4978097;28;20465;-61
2023/08/04 07:26:55;;;;;;;13.27;11.10;;;17.50;99.90;;;;;;4978555;28;20555;-60
2023/08/04 07:29:23;;;;;;;13.93;10.93;;;17.30;99.90;;;;;;4976985;28;20847;-60
2023/08/04 07:31:50;;;;;;;12.17;10.73;;;17.50;99.90;;;;;;4969274;28;20479;-59
2023/08/04 07:34:17;;;;;;;12.93;10.20;;;17.50;99.90;;;;;;4957743;29;20888;-59
2023/08/04 07:36:44;;;;;;;12.30;10.13;;;17.50;99.90;;;;;;4958041;28;20454;-59
2023/08/04 07:39:11;;;;;;;12.73;10.43;;;17.50;99.90;;;;;;4958105;29;20513;-60
2023/08/04 07:41:41;;;;;;;9.83;7.63;;;17.70;99.90;;;;;;4957956;29;20463;-59
2023/08/04 07:44:09;;;;;;;10.20;8.00;;;17.50;99.90;;;;;;4958577;29;20534;-60
2023/08/04 07:46:36;;;;;;;10.87;7.63;;;17.60;99.90;;;;;;4958745;29;20462;-59
2023/08/04 07:49:03;;;;;;;8.60;7.77;;;17.60;99.90;;;;;;4958812;29;20462;-59
2023/08/04 07:51:30;;;;;;;9.30;5.87;;;17.70;99.90;;;;;;4971381;28;20915;-59
2023/08/04 07:53:57;;;;;;;9.83;5.70;;;17.90;99.90;;;;;;4977716;28;20476;-59
2023/08/04 07:56:25;;;;;;;11.93;5.83;;;18.20;99.90;;;;;;4978145;28;20500;-59
2023/08/04 07:58:53;;;;;;;13.07;6.60;;;18.40;99.90;;;;;;4980886;28;20921;-59
2023/08/04 08:01:21;;;;;;;12.93;7.33;;;18.50;43.20;;;;;;4981716;28;20476;-59
2023/08/04 08:03:48;;;;;;;9.87;7.30;;;18.20;1.00;;;;;;4974048;28;20467;-59
2023/08/04 08:06:15;;;;;;;10.40;8.40;;;18.20;99.90;;;;;;4961934;28;20794;-59
2023/08/04 08:08:45;;;;;;;11.83;9.07;;;18.10;1.00;;;;;;4960616;28;20525;-59
2023/08/04 08:11:12;;;;;;;12.10;10.57;;;18.30;1.00;;;;;;4960657;28;20459;-59
2023/08/04 08:13:39;;;;;;;10.37;7.87;;;18.60;99.90;;;;;;4960139;29;20528;-59
2023/08/04 08:16:10;;;;;;;9.20;8.30;;;18.50;99.90;;;;;;4960389;28;20901;-59
2023/08/04 08:18:37;;;;;;;11.57;8.07;;;18.50;35.00;;;;;;4960692;28;20468;-58
2023/08/04 08:21:09;;;;;;;13.70;8.17;;;18.40;1.00;;;;;;4961355;28;20498;-59
2023/08/04 08:23:37;;;;;;;10.97;7.30;;;18.40;1.00;;;;;;4962034;28;20524;-58
2023/08/04 08:26:05;;;;;;;7.97;6.00;;;18.60;1.00;;;;;;4961588;28;20810;-59
2023/08/04 08:28:32;;;;;;;10.93;6.93;;;18.50;1.00;;;;;;4959806;28;20557;-59
2023/08/04 08:31:00;;;;;;;12.17;7.93;;;18.20;1.00;;;;;;4960405;28;20466;-59
2023/08/04 08:33:28;;;;;;;10.97;7.10;;;18.20;1.00;;;;;;4960369;28;20956;-59
2023/08/04 08:35:56;;;;;;;9.07;7.33;;;18.40;1.00;;;;;;4960132;28;20469;-59
2023/08/04 08:38:23;;;;;;;7.10;6.10;;;18.00;1.00;;;;;;4960157;28;20553;-58
2023/08/04 08:40:51;;;;;;;11.20;8.30;;;17.70;1.00;;;;;;4960081;28;21002;-58
2023/08/04 08:43:18;;;;;;;10.30;8.07;;;17.70;1.00;;;;;;4961431;28;20470;-58
2023/08/04 08:45:47;;;;;;;10.83;9.10;;;17.90;2.90;;;;;;4961437;28;20565;-58
2023/08/04 08:48:15;;;;;;;12.33;9.00;;;18.10;21.60;;;;;;4961097;28;20485;-58
2023/08/04 08:50:48;;;;;;;12.57;9.20;;;18.20;1.00;;;;;;4967919;28;20454;-58
2023/08/04 08:53:22;;;;;;;13.13;9.90;;;18.40;1.00;;;;;;4980882;28;20821;-58
2023/08/04 08:55:51;;;;;;;11.30;9.80;;;18.50;1.00;;;;;;4980762;28;20461;-58
2023/08/04 08:58:19;;;;;;;10.73;9.50;;;18.30;1.00;;;;;;4980373;28;20458;-57
2023/08/04 09:00:47;;;;;;;12.50;9.07;;;18.10;1.00;;;;;;4980481;28;20589;-58
2023/08/04 09:03:14;;;;;;;14.17;11.10;;;18.20;1.00;;;;;;4980708;28;20639;-58
2023/08/04 09:05:43;;;;;;;10.07;9.03;;;18.60;1.00;;;;;;4980350;28;20765;-56
2023/08/04 09:08:11;;;;;;;12.87;10.30;;;18.80;1.00;;;;;;4980231;28;20557;-58
2023/08/04 09:10:38;;;;;;;13.03;10.73;;;18.70;1.00;;;;;;4979625;28;20461;-58
2023/08/04 09:13:09;;;;;;;13.50;10.37;;;18.60;1.00;;;;;;4980755;28;20558;-56
2023/08/04 09:15:46;;;;;;;14.50;11.47;;;18.80;1.00;;;;;;4979039;28;20462;-58
2023/08/04 09:18:25;;;;;;;13.83;12.33;;;18.90;1.00;;;;;;4980107;28;20493;-57
2023/08/04 09:21:01;;;;;;;12.50;11.30;;;18.90;1.00;;;;;;4980562;28;20493;-57
2023/08/04 09:23:30;;;;;;;11.90;10.60;;;19.70;1.00;;;;;;4976193;28;20518;-57
2023/08/04 09:25:58;;;;;;;15.00;11.10;;;20.40;1.00;;;;;;4959768;29;20469;-57
2023/08/04 09:28:27;;;;;;;10.70;9.63;;;20.30;1.00;;;;;;4960674;29;20550;-57
2023/08/04 09:31:05;;;;;;;11.50;9.77;;;20.70;1.00;;;;;;4960386;29;20462;-56
2023/08/04 09:33:32;;;;;;;12.77;11.10;;;20.30;1.00;;;;;;4959310;28;20452;-58
2023/08/04 09:36:09;;;;;;;12.30;10.80;;;20.10;1.00;;;;;;4963592;28;20479;-57
2023/08/04 09:38:38;;;;;;;10.23;9.23;;;20.10;1.00;;;;;;4960520;28;20469;-57
2023/08/04 09:41:07;;;;;;;13.87;11.27;;;19.70;1.00;;;;;;4960350;29;20509;-57
2023/08/04 09:43:35;;;;;;;10.30;9.20;;;19.30;1.00;;;;;;4960052;29;20433;-57
2023/08/04 09:46:08;;;;;;;12.73;9.80;;;19.00;1.00;;;;;;4960172;29;20471;-58
2023/08/04 09:48:35;;;;;;;11.40;9.47;;;19.10;1.00;;;;;;4960288;29;20501;-58
2023/08/04 09:51:08;;;;;;;11.57;9.73;;;18.90;1.00;;;;;;4960343;28;20955;-57
2023/08/04 09:53:37;;;;;;;11.13;8.70;;;18.90;1.00;;;;;;4960504;28;20803;-57
2023/08/04 09:56:05;;;;;;;12.77;9.30;;;19.10;1.00;;;;;;4960478;29;20445;-57
2023/08/04 09:58:33;;;;;;;8.57;7.73;;;19.10;1.00;;;;;;4960418;29;20467;-58
2023/08/04 10:01:00;;;;;;;9.60;6.70;;;19.20;1.00;;;;;;4960216;29;20499;-56
2023/08/04 10:03:28;;;;;;;11.00;7.90;;;19.10;1.00;;;;;;4959753;28;20846;-59
2023/08/04 10:05:59;;;;;;;9.23;7.80;;;19.10;1.00;;;;;;4960249;28;20452;-57
2023/08/04 10:08:30;;;;;;;10.17;8.17;;;19.00;1.00;;;;;;4960069;29;20737;-56
2023/08/04 10:10:59;;;;;;;10.23;7.93;;;19.20;1.00;;;;;;4960046;28;20523;-57
2023/08/04 10:13:28;;;;;;;11.40;8.37;;;19.30;1.00;;;;;;4960345;28;20828;-57
2023/08/04 10:15:57;;;;;;;12.37;6.77;;;19.50;1.00;;;;;;4958246;28;20481;-57
2023/08/04 10:18:25;;;;;;;8.87;7.70;;;20.00;1.00;;;;;;4965709;28;20485;-59
2023/08/04 10:20:52;;;;;;;8.40;7.60;;;20.10;1.00;;;;;;4976607;28;20957;-55
2023/08/04 10:23:24;;;;;;;9.67;7.60;;;20.20;1.00;;;;;;4972067;28;20430;-55
2023/08/04 10:26:02;;;;;;;8.63;6.63;;;20.90;1.00;;;;;;4975603;28;20841;-54
2023/08/04 10:28:32;;;;;;;8.30;5.57;;;21.60;1.00;;;;;;4969297;28;20468;-55
2023/08/04 10:31:05;;;;;;;7.73;6.90;;;21.50;1.00;;;;;;4966655;28;20875;-55
2023/08/04 10:33:32;;;;;;;7.40;6.57;;;21.70;1.00;;;;;;4966983;28;20911;-56
2023/08/04 10:36:08;;;;;;;7.50;6.40;;;21.80;99.90;;;;;;4969183;28;20891;-57
2023/08/04 10:38:46;;;;;;;9.53;5.97;;;21.70;99.90;;;;;;4968920;28;20466;-57
2023/08/04 10:41:15;;;;;;;7.00;4.80;;;21.40;99.90;;;;;;4958828;28;20577;-56
2023/08/04 10:43:58;;;;;;;5.40;4.73;;;21.70;99.90;;;;;;4969039;28;20450;-56
2023/08/04 10:46:26;;;;;;;7.07;5.10;;;22.00;99.90;;;;;;4965302;28;20466;-57
2023/08/04 10:48:53;;;;;;;7.33;4.83;;;21.40;99.90;;;;;;4971340;28;20756;-57
2023/08/04 10:51:22;;;;;;;5.73;4.60;;;20.90;99.90;;;;;;4965461;28;20909;-57
2023/08/04 10:53:49;;;;;;;7.07;3.73;;;20.90;99.90;;;;;;4958991;28;20557;-57
2023/08/04 10:56:22;;;;;;;7.43;5.73;;;20.90;99.90;;;;;;4957801;29;20458;-56
2023/08/04 10:58:49;;;;;;;8.00;4.70;;;21.20;99.90;;;;;;4959090;29;20462;-56
2023/08/04 11:01:17;;;;;;;8.23;5.50;;;21.60;99.90;;;;;;4959435;29;20598;-56
2023/08/04 11:03:50;;;;;;;5.20;4.80;;;21.60;99.90;;;;;;4957657;29;20467;-57
2023/08/04 11:06:19;;;;;;;6.50;4.60;;;21.70;99.90;;;;;;4958078;29;20880;-57
2023/08/04 11:08:46;;;;;;;6.53;5.10;;;22.20;99.90;;;;;;4966622;28;20509;-58
2023/08/04 11:11:14;;;;;;;6.30;4.73;;;23.10;99.90;;;;;;4965563;28;20979;-58
2023/08/04 11:13:42;;;;;;;4.27;3.63;;;23.80;99.90;;;;;;4968001;28;20479;-58
2023/08/04 11:16:10;;;;;;;4.83;3.73;;;23.30;99.90;;;;;;4968912;28;20490;-58
2023/08/04 11:18:37;;;;;;;6.30;4.30;;;24.00;99.90;;;;;;4958468;28;20900;-58
2023/08/04 11:21:04;;;;;;;5.87;3.67;;;24.30;99.90;;;;;;4962870;28;21013;-59
2023/08/04 11:23:32;;;;;;;6.57;4.50;;;23.70;99.90;;;;;;4966906;28;20459;-59
2023/08/04 11:26:00;;;;;;;7.40;3.87;;;23.30;99.90;;;;;;4967568;28;20454;-58
2023/08/04 11:28:28;;;;;;;5.60;4.37;;;23.60;99.90;;;;;;4966779;28;20524;-59
2023/08/04 11:31:05;;;;;;;4.67;3.53;;;23.50;99.90;;;;;;4965294;28;20939;-59
2023/08/04 11:33:33;;;;;;;4.90;4.33;;;23.50;99.90;;;;;;4972501;28;20453;-58
2023/08/04 11:36:02;;;;;;;4.30;3.80;;;23.40;99.90;;;;;;4979885;28;20465;-59
2023/08/04 11:38:29;;;;;;;7.37;4.30;;;23.40;99.90;;;;;;4976930;28;20461;-60
2023/08/04 11:40:58;;;;;;;7.23;4.20;;;23.80;99.90;;;;;;4981700;28;20515;-60
2023/08/04 11:43:26;;;;;;;5.73;3.90;;;23.50;99.90;;;;;;4980162;28;20461;-60
2023/08/04 11:45:58;;;;;;;5.80;4.00;;;23.80;99.90;;;;;;4980319;28;20479;-60
2023/08/04 11:48:26;;;;;;;6.03;3.60;;;24.20;99.90;;;;;;4980583;28;20783;-59
2023/08/04 11:50:54;;;;;;;4.50;3.83;;;23.60;99.90;;;;;;4972680;28;20455;-59
2023/08/04 11:53:22;;;;;;;4.50;4.10;;;23.70;99.90;;;;;;4961413;28;20459;-59
2023/08/04 11:55:56;;;;;;;4.80;4.33;;;23.10;99.90;;;;;;4960833;29;20905;-60
2023/08/04 11:58:44;;;;;;;7.07;4.60;;;23.10;99.90;;;;;;4960538;29;20544;-59
2023/08/04 12:01:27;;;;;;;5.87;5.37;;;22.90;99.90;;;;;;4957087;28;20500;-59
2023/08/04 12:03:56;;;;;;;7.90;5.57;;;23.00;99.90;;;;;;4961467;28;20467;-59
2023/08/04 12:06:25;;;;;;;6.73;5.13;;;22.20;99.90;;;;;;4960345;28;20498;-60
2023/08/04 12:08:54;;;;;;;7.70;5.83;;;21.50;99.90;;;;;;4960720;28;20493;-59
2023/08/04 12:11:24;;;;;;;5.90;5.40;;;20.80;99.90;;;;;;4960654;29;20464;-58
2023/08/04 12:13:52;;;;;;;6.40;5.40;;;20.70;99.90;;;;;;4958754;29;20460;-60
2023/08/04 12:16:20;;;;;;;6.67;5.87;;;20.90;99.90;;;;;;4958813;29;20441;-59
2023/08/04 12:18:47;;;;;;;8.30;6.30;;;21.40;99.90;;;;;;4959026;29;20463;-59
2023/08/04 12:21:17;;;;;;;9.83;5.50;;;21.70;99.90;;;;;;4959040;28;20552;-60
2023/08/04 12:23:48;;;;;;;6.30;5.70;;;22.40;99.90;;;;;;4960448;28;20532;-59
2023/08/04 12:26:16;;;;;;;5.87;5.37;;;23.50;99.90;;;;;;4960874;29;20483;-59
2023/08/04 12:28:43;;;;;;;9.33;5.17;;;23.90;99.90;;;;;;4959737;28;20706;-60
2023/08/04 12:31:10;;;;;;;5.70;5.20;;;24.20;99.90;;;;;;4960020;29;20565;-60
2023/08/04 12:33:37;;;;;;;5.40;4.70;;;24.20;99.90;;;;;;4959702;29;20462;-60
2023/08/04 12:36:05;;;;;;;4.67;4.13;;;23.80;99.90;;;;;;4958735;29;20811;-59
2023/08/04 12:38:33;;;;;;;5.67;5.17;;;23.50;99.90;;;;;;4958541;29;20472;-60
2023/08/04 12:41:01;;;;;;;5.97;5.40;;;22.70;99.90;;;;;;4959665;29;20494;-60